createdAt,value
2019-04-05T00:00:50.530Z,68.97
2019-04-05T00:03:21.852Z,68.40
2019-04-05T00:05:54.293Z,68.55
2019-04-05T00:08:25.640Z,68.42
2019-04-05T00:10:56.912Z,66.55
2019-04-05T00:13:28.251Z,67.22
2019-04-05T00:15:59.593Z,67.05
2019-04-05T00:18:30.953Z,64.77
2019-04-05T00:21:02.384Z,60.85
2019-04-05T00:23:33.717Z,59.18
2019-04-05T00:26:05.019Z,66.60
2019-04-05T00:28:36.414Z,66.22
2019-04-05T00:31:07.733Z,63.25
2019-04-05T00:33:39.105Z,62.67
2019-04-05T00:36:10.459Z,64.27
2019-04-05T00:38:41.817Z,52.00
2019-04-05T00:41:13.225Z,65.35
2019-04-05T00:43:44.696Z,66.15
2019-04-05T00:46:16.043Z,67.12
2019-04-05T00:48:47.383Z,66.15
2019-04-05T00:51:18.651Z,66.40
2019-04-05T00:53:50.004Z,75.15
2019-04-05T00:56:21.376Z,79.15
2019-04-05T00:58:52.655Z,77.08
2019-04-05T01:01:24.486Z,77.67
2019-04-05T01:03:55.834Z,73.05
2019-04-05T01:06:28.458Z,74.12
2019-04-05T01:09:00.817Z,72.45
2019-04-05T01:14:03.179Z,74.27
2019-04-05T01:16:34.531Z,79.82
2019-04-05T01:19:05.864Z,70.45
2019-04-05T01:21:39.941Z,68.92
2019-04-05T01:24:11.363Z,65.75
2019-04-05T01:26:43.227Z,63.83
2019-04-05T01:29:14.511Z,65.25
2019-04-05T01:31:45.868Z,64.75
2019-04-05T01:34:17.284Z,67.42
2019-04-05T01:36:48.567Z,67.72
2019-04-05T01:39:19.898Z,68.35
2019-04-05T01:41:51.289Z,68.65
2019-04-05T01:44:22.658Z,66.53
2019-04-05T01:46:54.011Z,64.70
2019-04-05T01:49:25.382Z,65.35
2019-04-05T01:51:56.746Z,67.62
2019-04-05T01:54:29.302Z,71.28
2019-04-05T01:57:00.806Z,87.85
2019-04-05T01:59:32.148Z,82.85
2019-04-05T02:02:03.535Z,75.70
2019-04-05T02:04:35.995Z,75.50
2019-04-05T02:07:07.391Z,72.42
2019-04-05T02:09:38.760Z,66.97
2019-04-05T02:12:10.074Z,70.25
2019-04-05T02:14:41.465Z,74.42
2019-04-05T02:17:12.829Z,69.53
2019-04-05T02:19:44.170Z,66.15
2019-04-05T02:22:15.635Z,66.07
2019-04-05T02:24:46.902Z,51.63
2019-04-05T02:27:18.296Z,62.88
2019-04-05T02:29:49.664Z,62.17
2019-04-05T02:32:21.141Z,61.65
2019-04-05T02:34:52.677Z,61.60
2019-04-05T02:37:23.956Z,61.85
2019-04-05T02:39:55.290Z,59.48
2019-04-05T02:42:26.595Z,44.65
2019-04-05T02:44:57.850Z,55.28
2019-04-05T02:47:29.194Z,56.37
2019-04-05T02:50:00.535Z,55.70
2019-04-05T02:52:31.854Z,54.67
2019-04-05T02:55:03.232Z,54.88
2019-04-05T02:57:34.531Z,68.10
2019-04-05T03:00:05.921Z,74.50
2019-04-05T03:02:37.394Z,51.85
2019-04-05T03:05:08.768Z,67.42
2019-04-05T03:07:40.089Z,67.27
2019-04-05T03:10:14.570Z,64.87
2019-04-05T03:12:45.970Z,68.65
2019-04-05T03:15:17.333Z,64.10
2019-04-05T03:17:48.641Z,62.62
2019-04-05T03:20:20.001Z,63.17
2019-04-05T03:22:51.341Z,50.90
2019-04-05T03:25:22.702Z,66.67
2019-04-05T03:27:54.062Z,66.30
2019-04-05T03:30:25.422Z,64.32
2019-04-05T03:32:56.804Z,64.22
2019-04-05T03:35:28.279Z,68.07
2019-04-05T03:37:59.601Z,63.95
2019-04-05T03:40:30.963Z,62.65
2019-04-05T03:43:02.366Z,65.83
2019-04-05T03:45:33.757Z,67.42
2019-04-05T03:48:05.152Z,58.85
2019-04-05T03:50:36.573Z,65.08
2019-04-05T03:53:07.920Z,62.03
2019-04-05T03:55:39.256Z,64.60
2019-04-05T03:58:10.603Z,62.90
2019-04-05T04:00:42.112Z,49.08
2019-04-05T04:03:13.538Z,60.90
2019-04-05T04:05:44.838Z,49.67
2019-04-05T04:08:16.231Z,66.90
2019-04-05T04:10:48.801Z,65.83
2019-04-05T04:13:20.151Z,69.42
2019-04-05T04:15:51.918Z,56.18
2019-04-05T04:18:23.311Z,62.60
2019-04-05T04:20:57.785Z,56.88
2019-04-05T04:23:30.037Z,61.20
2019-04-05T04:26:01.405Z,64.53
2019-04-05T04:28:32.800Z,69.03
2019-04-05T04:31:04.104Z,71.70
2019-04-05T04:33:36.463Z,65.52
2019-04-05T04:36:07.867Z,64.87
2019-04-05T04:38:39.556Z,66.25
2019-04-05T04:41:10.980Z,65.67
2019-04-05T04:43:42.359Z,65.05
2019-04-05T04:46:13.874Z,69.42
2019-04-05T04:48:45.269Z,65.87
2019-04-05T04:51:16.826Z,44.55
2019-04-05T04:53:48.175Z,79.00
2019-04-05T04:56:19.518Z,69.17
2019-04-05T04:58:50.871Z,73.55
2019-04-05T05:01:22.115Z,72.62
2019-04-05T05:03:53.603Z,76.42
2019-04-05T05:06:24.961Z,71.77
2019-04-05T05:08:57.309Z,77.30
2019-04-05T05:11:28.755Z,65.37
2019-04-05T05:14:00.100Z,70.32
2019-04-05T05:16:31.365Z,62.43
2019-04-05T05:19:02.696Z,73.83
2019-04-05T05:21:34.064Z,74.87
2019-04-05T05:24:05.434Z,71.57
2019-04-05T05:26:36.757Z,75.35
2019-04-05T05:29:08.178Z,63.85
2019-04-05T05:31:39.551Z,79.47
2019-04-05T05:34:10.978Z,89.70
2019-04-05T05:36:42.729Z,81.05
2019-04-05T05:39:14.541Z,81.57
2019-04-05T05:41:45.920Z,80.42
2019-04-05T05:44:17.411Z,77.47
2019-04-05T05:46:48.884Z,71.95
2019-04-05T05:49:20.372Z,77.25
2019-04-05T05:51:51.853Z,78.47
2019-04-05T05:54:23.169Z,67.37
2019-04-05T05:56:54.582Z,70.47
2019-04-05T05:59:29.663Z,64.30
2019-04-05T06:01:59.021Z,55.17
2019-04-05T06:04:31.488Z,57.43
2019-04-05T06:07:02.830Z,55.35
2019-04-05T06:09:34.234Z,51.68
2019-04-05T06:12:05.617Z,57.30
2019-04-05T06:14:37.005Z,55.17
2019-04-05T06:17:08.376Z,51.35
2019-04-05T06:19:39.739Z,46.10
2019-04-05T06:22:11.092Z,43.70
2019-04-05T06:24:42.491Z,45.85
2019-04-05T06:27:13.908Z,43.05
2019-04-05T06:29:45.291Z,43.05
2019-04-05T06:32:16.650Z,44.88
2019-04-05T06:34:47.945Z,39.70
2019-04-05T06:37:19.351Z,45.60
2019-04-05T06:39:50.768Z,39.92
2019-04-05T06:42:22.117Z,29.55
2019-04-05T06:44:53.453Z,40.00
2019-04-05T06:47:24.774Z,39.20
2019-04-05T06:49:56.033Z,44.58
2019-04-05T06:52:27.576Z,42.83
2019-04-05T06:54:58.950Z,45.95
2019-04-05T06:57:30.224Z,36.93
2019-04-05T07:00:01.417Z,34.50
2019-04-05T07:02:32.923Z,27.45
2019-04-05T07:05:05.470Z,27.67
2019-04-05T07:07:36.748Z,30.32
2019-04-05T07:10:08.100Z,35.25
2019-04-05T07:12:41.052Z,30.80
2019-04-05T07:15:12.403Z,32.13
2019-04-05T07:17:43.773Z,30.90
2019-04-05T07:20:15.123Z,31.10
2019-04-05T07:22:46.426Z,34.75
2019-04-05T07:25:17.772Z,28.57
2019-04-05T07:27:49.137Z,29.27
2019-04-05T07:30:21.574Z,28.25
2019-04-05T07:32:52.997Z,29.67
2019-04-05T07:35:33.404Z,24.55
2019-04-05T07:37:57.429Z,26.35
2019-04-05T07:40:28.790Z,24.60
2019-04-05T07:43:00.176Z,24.95
2019-04-05T07:45:31.537Z,24.92
2019-04-05T07:48:02.898Z,23.92
2019-04-05T07:50:34.328Z,21.27
2019-04-05T07:53:05.695Z,21.40
2019-04-05T07:55:36.944Z,19.23
2019-04-05T07:58:08.281Z,19.25
2019-04-05T08:00:48.615Z,18.40
2019-04-05T08:03:20.555Z,19.27
2019-04-05T08:05:51.992Z,15.05
2019-04-05T08:08:44.370Z,13.48
2019-04-05T08:11:17.481Z,13.25
2019-04-05T08:16:19.629Z,15.98
2019-04-05T08:18:57.677Z,11.57
2019-04-05T08:21:24.209Z,11.35
2019-04-05T08:23:55.538Z,11.28
2019-04-05T08:26:28.006Z,11.00
2019-04-05T08:28:59.389Z,11.90
2019-04-05T08:31:30.738Z,11.00
2019-04-05T08:34:02.180Z,12.82
2019-04-05T08:36:33.439Z,12.70
2019-04-05T08:39:07.532Z,12.47
2019-04-05T08:41:38.867Z,13.65
2019-04-05T08:44:10.060Z,12.70
2019-04-05T08:46:41.394Z,17.23
2019-04-05T08:49:12.790Z,14.00
2019-04-05T08:51:44.135Z,16.05
2019-04-05T08:54:15.493Z,15.85
2019-04-05T08:56:46.860Z,17.57
2019-04-05T08:59:18.285Z,15.75
2019-04-05T09:01:49.605Z,15.40
2019-04-05T09:04:21.015Z,16.20
2019-04-05T09:06:52.296Z,23.45
2019-04-05T09:09:23.646Z,19.85
2019-04-05T09:11:55.045Z,19.12
2019-04-05T09:14:26.415Z,16.35
2019-04-05T09:16:57.796Z,21.17
2019-04-05T09:19:29.144Z,20.90
2019-04-05T09:22:00.666Z,19.42
2019-04-05T09:24:32.051Z,17.82
2019-04-05T09:27:03.395Z,18.02
2019-04-05T09:29:34.776Z,18.07
2019-04-05T09:32:06.154Z,19.17
2019-04-05T09:34:37.527Z,13.78
2019-04-05T09:37:09.902Z,13.13
2019-04-05T09:39:41.297Z,15.88
2019-04-05T09:42:12.658Z,15.08
2019-04-05T09:44:44.013Z,14.50
2019-04-05T09:47:15.361Z,15.80
2019-04-05T09:49:46.776Z,13.62
2019-04-05T09:52:18.155Z,14.65
2019-04-05T09:54:49.519Z,14.00
2019-04-05T09:57:20.882Z,13.70
2019-04-05T09:59:52.239Z,15.30
2019-04-05T10:02:23.591Z,14.18
2019-04-05T10:04:54.959Z,14.80
2019-04-05T10:07:26.327Z,14.73
2019-04-05T10:09:57.698Z,15.38
2019-04-05T10:12:29.058Z,14.75
2019-04-05T10:15:00.381Z,15.95
2019-04-05T10:17:33.023Z,15.23
2019-04-05T10:20:06.772Z,14.40
2019-04-05T10:22:38.085Z,15.18
2019-04-05T10:25:09.445Z,14.50
2019-04-05T10:27:40.737Z,14.03
2019-04-05T10:30:12.282Z,14.35
2019-04-05T10:32:46.077Z,13.83
2019-04-05T10:35:16.724Z,15.28
2019-04-05T10:37:48.020Z,15.35
2019-04-05T10:40:19.977Z,15.72
2019-04-05T10:42:51.363Z,15.60
2019-04-05T10:45:22.641Z,16.93
2019-04-05T10:47:53.955Z,15.40
2019-04-05T10:50:25.309Z,15.08
2019-04-05T10:52:56.621Z,14.47
2019-04-05T10:55:28.001Z,15.85
2019-04-05T10:57:59.399Z,14.90
2019-04-05T11:00:30.694Z,14.45
2019-04-05T11:03:02.041Z,15.38
2019-04-05T11:05:33.423Z,14.65
2019-04-05T11:08:04.933Z,12.93
2019-04-05T11:10:36.313Z,13.32
2019-04-05T11:13:07.676Z,14.53
2019-04-05T11:15:39.028Z,12.47
2019-04-05T11:18:10.436Z,13.88
2019-04-05T11:20:41.802Z,12.50
2019-04-05T11:23:13.200Z,12.93
2019-04-05T11:25:44.558Z,13.85
2019-04-05T11:28:15.914Z,13.72
2019-04-05T11:30:47.302Z,14.07
2019-04-05T11:33:19.878Z,14.65
2019-04-05T11:35:52.668Z,14.00
2019-04-05T11:38:24.528Z,14.13
2019-04-05T11:40:56.162Z,15.05
2019-04-05T11:43:31.137Z,15.43
2019-04-05T11:46:01.008Z,14.83
2019-04-05T11:48:32.364Z,14.93
2019-04-05T11:51:03.732Z,14.28
2019-04-05T11:53:35.144Z,14.75
2019-04-05T11:56:14.626Z,15.50
2019-04-05T11:58:41.133Z,15.58
2019-04-05T12:01:14.061Z,14.03
2019-04-05T12:03:45.414Z,14.18
2019-04-05T12:06:18.094Z,13.22
2019-04-05T12:08:50.708Z,13.95
2019-04-05T12:11:22.114Z,16.25
2019-04-05T12:13:53.544Z,15.15
2019-04-05T12:16:24.863Z,12.53
2019-04-05T12:18:58.756Z,12.98
2019-04-05T12:21:29.269Z,12.80
2019-04-05T12:24:02.562Z,14.07
2019-04-05T12:26:34.488Z,15.72
2019-04-05T12:29:06.386Z,16.23
2019-04-05T12:31:37.767Z,15.70
2019-04-05T12:34:09.172Z,15.28
2019-04-05T12:36:40.517Z,16.20
2019-04-05T12:39:11.863Z,15.32
2019-04-05T12:41:44.875Z,15.08
2019-04-05T12:44:16.272Z,14.18
2019-04-05T12:46:47.646Z,15.75
2019-04-05T12:49:18.995Z,14.85
2019-04-05T12:51:50.276Z,15.78
2019-04-05T12:54:22.637Z,16.20
2019-04-05T12:56:54.341Z,15.48
2019-04-05T12:59:26.775Z,18.73
2019-04-05T13:01:59.653Z,16.00
2019-04-05T13:04:31.193Z,31.27
2019-04-05T13:07:02.549Z,17.52
2019-04-05T13:09:33.917Z,16.67
2019-04-05T13:12:05.326Z,16.20
2019-04-05T13:14:36.680Z,18.20
2019-04-05T13:17:09.076Z,16.50
2019-04-05T13:19:40.420Z,16.00
2019-04-05T13:22:11.771Z,18.12
2019-04-05T13:24:43.064Z,19.17
2019-04-05T13:27:14.406Z,17.65
2019-04-05T13:29:47.332Z,18.40
2019-04-05T13:32:21.557Z,18.42
2019-04-05T13:34:55.374Z,19.57
2019-04-05T13:37:24.868Z,18.98
2019-04-05T13:39:57.674Z,19.95
2019-04-05T13:42:31.221Z,19.42
2019-04-05T13:45:02.512Z,18.45
2019-04-05T13:47:37.958Z,19.75
2019-04-05T13:50:10.922Z,19.15
2019-04-05T13:52:42.158Z,17.87
2019-04-05T13:55:13.621Z,21.85
2019-04-05T13:57:44.991Z,19.67
2019-04-05T14:00:18.326Z,18.52
2019-04-05T14:02:50.771Z,19.07
2019-04-05T14:05:22.899Z,20.77
2019-04-05T14:08:09.154Z,19.12
2019-04-05T14:10:27.262Z,23.12
2019-04-05T14:12:59.716Z,23.90
2019-04-05T14:15:31.524Z,23.70
2019-04-05T14:18:03.261Z,22.82
2019-04-05T14:20:34.619Z,22.17
2019-04-05T14:23:05.949Z,23.83
2019-04-05T14:25:37.296Z,23.75
2019-04-05T14:28:08.664Z,24.70
2019-04-05T14:30:39.962Z,23.57
2019-04-05T14:33:11.389Z,24.55
2019-04-05T14:35:42.712Z,23.83
2019-04-05T14:38:14.090Z,31.30
2019-04-05T14:40:45.460Z,27.45
2019-04-05T14:43:16.825Z,26.17
2019-04-05T14:45:48.194Z,23.80
2019-04-05T14:48:19.549Z,23.65
2019-04-05T14:50:50.864Z,25.05
2019-04-05T14:53:23.203Z,23.57
2019-04-05T14:55:54.584Z,26.60
2019-04-05T14:58:25.966Z,23.40
2019-04-05T15:00:57.329Z,24.95
2019-04-05T15:03:28.715Z,24.37
2019-04-05T15:06:01.048Z,22.22
2019-04-05T15:08:32.404Z,22.73
2019-04-05T15:11:03.750Z,26.12
2019-04-05T15:13:35.135Z,29.27
2019-04-05T15:16:06.540Z,26.23
2019-04-05T15:18:37.901Z,24.63
2019-04-05T15:21:09.290Z,23.83
2019-04-05T15:23:41.375Z,24.43
2019-04-05T15:26:12.977Z,22.22
2019-04-05T15:28:44.324Z,22.30
2019-04-05T15:31:15.738Z,21.52
2019-04-05T15:33:47.065Z,22.98
2019-04-05T15:36:18.453Z,20.88
2019-04-05T15:38:49.737Z,20.05
2019-04-05T15:41:21.193Z,21.30
2019-04-05T15:43:52.461Z,19.80
2019-04-05T15:46:23.807Z,20.92
2019-04-05T15:48:55.178Z,21.12
2019-04-05T15:51:26.575Z,21.42
2019-04-05T15:54:01.132Z,20.32
2019-04-05T15:56:33.262Z,18.98
2019-04-05T15:59:04.843Z,20.50
2019-04-05T16:01:36.369Z,21.27
2019-04-05T16:04:07.688Z,21.68
2019-04-05T16:06:39.296Z,23.07
2019-04-05T16:09:13.211Z,20.92
2019-04-05T16:11:44.690Z,20.95
2019-04-05T16:14:16.035Z,20.80
2019-04-05T16:16:47.539Z,19.80
2019-04-05T16:19:18.905Z,19.70
2019-04-05T16:21:50.272Z,20.17
2019-04-05T16:24:21.625Z,20.08
2019-04-05T16:26:53.023Z,21.17
2019-04-05T16:29:24.351Z,21.17
2019-04-05T16:31:55.678Z,22.55
2019-04-05T16:34:27.034Z,18.90
2019-04-05T16:36:58.302Z,21.82
2019-04-05T16:39:29.628Z,18.67
2019-04-05T16:42:01.008Z,17.87
2019-04-05T16:44:32.372Z,13.50
2019-04-05T16:47:03.770Z,17.20
2019-04-05T16:49:35.190Z,17.48
2019-04-05T16:52:06.725Z,19.65
2019-04-05T16:54:38.085Z,21.52
2019-04-05T16:57:10.429Z,21.60
2019-04-05T16:59:41.778Z,26.62
2019-04-05T17:02:13.079Z,29.35
2019-04-05T17:04:46.013Z,33.50
2019-04-05T17:07:17.396Z,41.58
2019-04-05T17:09:48.757Z,46.02
2019-04-05T17:12:21.670Z,53.52
2019-04-05T17:14:54.262Z,52.93
2019-04-05T17:17:25.559Z,52.78
2019-04-05T17:19:56.950Z,36.90
2019-04-05T17:22:28.337Z,45.73
2019-04-05T17:24:59.705Z,43.52
2019-04-05T17:27:31.025Z,40.88
2019-04-05T17:30:03.959Z,40.88
2019-04-05T17:32:35.572Z,37.65
2019-04-05T17:35:07.684Z,35.65
2019-04-05T17:37:39.039Z,39.42
2019-04-05T17:40:11.409Z,36.83
2019-04-05T17:42:42.758Z,33.20
2019-04-05T17:45:14.099Z,40.50
2019-04-05T17:47:45.454Z,41.33
2019-04-05T17:50:19.969Z,41.95
2019-04-05T17:52:51.314Z,39.88
2019-04-05T17:55:22.691Z,41.65
2019-04-05T17:57:54.041Z,38.30
2019-04-05T18:00:26.316Z,36.17
2019-04-05T18:02:57.701Z,32.90
2019-04-05T18:05:29.085Z,31.10
2019-04-05T18:08:00.344Z,32.28
2019-04-05T18:10:31.704Z,30.17
2019-04-05T18:13:03.216Z,31.23
2019-04-05T18:15:34.477Z,34.13
2019-04-05T18:18:05.906Z,34.00
2019-04-05T18:20:37.282Z,25.45
2019-04-05T18:23:08.647Z,36.70
2019-04-05T18:25:39.995Z,37.13
2019-04-05T18:28:11.348Z,35.88
2019-04-05T18:30:42.719Z,34.10
2019-04-05T18:33:14.058Z,36.15
2019-04-05T18:35:45.442Z,39.40
2019-04-05T18:38:18.007Z,38.30
2019-04-05T18:40:49.771Z,40.85
2019-04-05T18:43:21.170Z,37.63
2019-04-05T18:45:52.575Z,36.85
2019-04-05T18:48:23.945Z,37.08
2019-04-05T18:50:55.749Z,40.43
2019-04-05T18:53:37.167Z,38.73
2019-04-05T18:56:00.174Z,41.48
2019-04-05T18:58:31.534Z,43.48
2019-04-05T19:01:02.819Z,52.55
2019-04-05T19:03:35.281Z,43.58
2019-04-05T19:06:06.654Z,45.73
2019-04-05T19:08:39.890Z,33.15
2019-04-05T19:11:11.187Z,43.98
2019-04-05T19:13:42.601Z,42.88
2019-04-05T19:16:13.999Z,40.83
2019-04-05T19:18:45.320Z,41.30
2019-04-05T19:21:16.678Z,43.28
2019-04-05T19:23:51.128Z,43.90
2019-04-05T19:26:21.091Z,42.20
2019-04-05T19:28:52.404Z,42.00
2019-04-05T19:49:18.679Z,44.23
2019-04-05T19:51:50.035Z,47.15
2019-04-05T19:54:21.457Z,44.90
2019-04-05T19:56:52.817Z,46.90
2019-04-05T19:59:24.169Z,44.55
2019-04-05T20:01:55.529Z,46.73
2019-04-05T20:04:26.915Z,40.98
2019-04-05T20:06:59.368Z,43.78
2019-04-05T20:09:30.749Z,40.33
2019-04-05T20:12:02.099Z,43.48
2019-04-05T20:14:33.472Z,49.85
2019-04-05T20:17:04.802Z,49.93
2019-04-05T20:19:36.174Z,45.08
2019-04-05T20:22:07.499Z,56.20
2019-04-05T20:24:38.838Z,111.72
2019-04-05T20:27:10.252Z,122.65
2019-04-05T20:29:41.880Z,144.75
2019-04-05T20:32:13.225Z,147.50
2019-04-05T20:34:44.574Z,151.60
2019-04-05T20:37:15.889Z,148.55
2019-04-05T20:39:47.272Z,117.80
2019-04-05T20:42:18.621Z,139.55
2019-04-05T20:44:50.042Z,135.03
2019-04-05T20:47:21.425Z,128.72
2019-04-05T20:49:52.794Z,131.07
2019-04-05T20:52:24.153Z,121.55
2019-04-05T20:54:55.534Z,110.17
2019-04-05T20:57:26.892Z,97.80
2019-04-05T20:59:58.217Z,96.67
2019-04-05T21:02:29.570Z,89.20
2019-04-05T21:05:00.873Z,81.60
2019-04-05T21:07:33.532Z,75.65
2019-04-05T21:10:06.899Z,69.82
2019-04-05T21:12:38.179Z,63.55
2019-04-05T21:15:09.596Z,63.45
2019-04-05T21:17:40.924Z,63.75
2019-04-05T21:20:12.250Z,60.28
2019-04-05T21:22:43.581Z,58.45
2019-04-05T21:25:14.935Z,56.58
2019-04-05T21:27:46.337Z,60.38
2019-04-05T21:30:17.754Z,56.05
2019-04-05T21:32:49.031Z,55.63
2019-04-05T21:35:20.523Z,54.23
2019-04-05T21:37:52.130Z,46.88
2019-04-05T21:40:23.704Z,48.25
2019-04-05T21:42:55.268Z,46.30
2019-04-05T21:45:26.822Z,44.13
2019-04-05T21:47:58.430Z,41.75
2019-04-05T21:50:30.042Z,38.40
2019-04-05T21:53:01.609Z,40.05
2019-04-05T21:55:35.466Z,39.27
2019-04-05T21:58:07.014Z,38.42
2019-04-05T22:00:42.907Z,38.85
2019-04-05T22:03:15.980Z,38.73
2019-04-05T22:05:47.648Z,38.28
2019-04-05T22:08:20.574Z,37.33
2019-04-05T22:10:52.127Z,33.70
2019-04-05T22:13:23.821Z,34.30
2019-04-05T22:15:55.387Z,35.03
2019-04-05T22:18:26.937Z,35.80
2019-04-05T22:20:58.491Z,36.58
2019-04-05T22:23:30.064Z,38.00
2019-04-05T22:26:01.714Z,35.45
2019-04-05T22:28:33.266Z,33.38
2019-04-05T22:31:04.816Z,25.90
2019-04-05T22:33:36.336Z,32.10
2019-04-05T22:36:07.914Z,30.82
2019-04-05T22:38:39.500Z,30.65
2019-04-05T22:41:11.046Z,28.92
2019-04-05T22:43:42.593Z,29.40
2019-04-05T22:46:14.185Z,30.20
2019-04-05T22:48:45.749Z,28.55
2019-04-05T22:51:17.323Z,30.48
2019-04-05T22:53:48.938Z,31.25
2019-04-05T22:56:20.497Z,27.90
2019-04-05T22:58:52.063Z,29.42
2019-04-05T23:01:23.606Z,29.40
2019-04-05T23:03:55.212Z,28.95
2019-04-05T23:06:27.987Z,28.47
2019-04-05T23:08:59.528Z,29.15
2019-04-05T23:11:31.087Z,27.80
2019-04-05T23:14:02.619Z,30.75
2019-04-05T23:16:34.255Z,32.63
2019-04-05T23:19:05.826Z,29.82
2019-04-05T23:21:37.404Z,28.98
2019-04-05T23:24:08.950Z,30.45
2019-04-05T23:26:40.525Z,29.55
2019-04-05T23:29:12.089Z,29.50
2019-04-05T23:31:43.640Z,28.67
2019-04-05T23:34:15.387Z,29.00
2019-04-05T23:36:46.952Z,30.57
2019-04-05T23:39:18.496Z,30.80
2019-04-05T23:41:50.038Z,32.38
2019-04-05T23:44:21.624Z,31.62
2019-04-05T23:46:53.209Z,31.12
2019-04-05T23:49:24.701Z,32.38
2019-04-05T23:51:57.285Z,28.60
2019-04-05T23:54:28.842Z,28.40
2019-04-05T23:57:00.385Z,28.17
2019-04-05T23:59:31.929Z,27.60
